createdAt,value
2019-02-06T00:00:34.289Z,17.40
2019-02-06T00:03:02.266Z,15.07
2019-02-06T00:05:29.609Z,16.23
2019-02-06T00:07:56.969Z,12.93
2019-02-06T00:10:24.326Z,13.10
2019-02-06T00:12:51.670Z,15.37
2019-02-06T00:15:19.024Z,17.40
2019-02-06T00:17:46.716Z,14.77
2019-02-06T00:20:14.105Z,17.00
2019-02-06T00:22:41.479Z,15.30
2019-02-06T00:25:08.948Z,19.63
2019-02-06T00:27:36.601Z,14.57
2019-02-06T00:30:04.857Z,14.60
2019-02-06T00:32:32.132Z,18.97
2019-02-06T00:35:25.866Z,20.87
2019-02-06T00:38:08.112Z,18.43
2019-02-06T00:40:35.496Z,16.73
2019-02-06T00:43:03.114Z,21.27
2019-02-06T00:45:30.465Z,15.90
2019-02-06T00:47:58.408Z,17.73
2019-02-06T00:50:25.867Z,19.60
2019-02-06T00:52:53.198Z,15.50
2019-02-06T00:55:20.747Z,20.50
2019-02-06T00:57:48.300Z,16.47
2019-02-06T01:00:19.039Z,16.40
2019-02-06T01:02:46.346Z,22.50
2019-02-06T01:05:14.355Z,17.70
2019-02-06T01:07:41.616Z,17.93
2019-02-06T01:10:09.638Z,20.33
2019-02-06T01:12:37.009Z,18.80
2019-02-06T01:15:04.925Z,19.53
2019-02-06T01:17:32.948Z,15.53
2019-02-06T01:20:00.236Z,17.87
2019-02-06T01:22:27.571Z,18.33
2019-02-06T01:24:55.540Z,21.13
2019-02-06T01:27:22.905Z,17.00
2019-02-06T01:29:50.260Z,16.93
2019-02-06T01:32:17.829Z,16.37
2019-02-06T01:35:04.663Z,14.87
2019-02-06T01:37:33.822Z,15.33
2019-02-06T01:40:20.553Z,16.37
2019-02-06T01:45:49.287Z,15.43
2019-02-06T01:48:16.899Z,18.53
2019-02-06T01:50:44.236Z,14.87
2019-02-06T01:56:09.658Z,15.13
2019-02-06T01:58:37.000Z,12.43
2019-02-06T02:01:04.654Z,18.20
2019-02-06T02:03:51.392Z,18.80
2019-02-06T02:06:18.768Z,19.03
2019-02-06T02:08:49.914Z,18.20
2019-02-06T02:11:17.264Z,11.03
2019-02-06T02:13:44.539Z,13.23
2019-02-06T02:16:11.901Z,14.10
2019-02-06T02:18:39.237Z,12.07
2019-02-06T02:21:06.585Z,13.77
2019-02-06T02:23:33.844Z,13.50
2019-02-06T02:26:20.577Z,11.17
2019-02-06T02:28:48.120Z,17.47
2019-02-06T02:31:34.969Z,14.47
2019-02-06T02:34:02.363Z,12.73
2019-02-06T02:36:30.090Z,17.07
2019-02-06T02:38:57.647Z,15.07
2019-02-06T02:41:44.456Z,13.57
2019-02-06T02:44:31.305Z,12.23
2019-02-06T02:46:58.713Z,14.27
2019-02-06T02:49:26.337Z,16.53
2019-02-06T02:55:06.548Z,17.30
2019-02-06T02:57:34.038Z,15.37
2019-02-06T03:00:01.393Z,23.00
2019-02-06T03:02:46.676Z,17.07
2019-02-06T03:05:18.071Z,13.63
2019-02-06T03:07:45.343Z,8.77
2019-02-06T03:10:32.172Z,16.83
2019-02-06T03:19:01.953Z,20.20
2019-02-06T03:21:29.272Z,18.63
2019-02-06T03:23:56.919Z,11.90
2019-02-06T03:26:24.272Z,14.13
2019-02-06T03:28:51.898Z,17.33
2019-02-06T03:31:19.261Z,14.20
2019-02-06T03:34:06.773Z,12.97
2019-02-06T03:36:40.279Z,9.00
2019-02-06T03:39:05.654Z,9.53
2019-02-06T03:44:31.137Z,14.70
2019-02-06T03:46:58.571Z,17.80
2019-02-06T03:49:45.572Z,14.70
2019-02-06T03:52:34.485Z,16.50
2019-02-06T04:01:01.510Z,21.30
2019-02-06T04:03:48.637Z,18.23
2019-02-06T04:06:16.030Z,17.23
2019-02-06T04:08:43.348Z,19.27
2019-02-06T04:11:30.093Z,19.97
2019-02-06T04:14:17.093Z,15.63
2019-02-06T04:16:46.529Z,17.50
2019-02-06T04:19:13.879Z,15.63
2019-02-06T04:22:00.706Z,16.33
2019-02-06T04:24:28.295Z,16.63
2019-02-06T04:26:55.889Z,18.23
2019-02-06T04:29:29.785Z,22.97
2019-02-06T04:31:57.043Z,10.63
2019-02-06T04:34:43.916Z,23.00
2019-02-06T04:37:30.734Z,18.17
2019-02-06T04:48:58.254Z,19.03
2019-02-06T04:51:25.630Z,22.43
2019-02-06T04:53:52.968Z,17.50
2019-02-06T04:56:20.235Z,28.00
2019-02-06T04:59:07.244Z,23.47
2019-02-06T05:01:34.898Z,20.93
2019-02-06T05:04:02.214Z,24.27
2019-02-06T05:06:29.718Z,20.80
2019-02-06T05:08:57.107Z,23.47
2019-02-06T05:11:24.728Z,16.27
2019-02-06T05:13:52.627Z,20.47
2019-02-06T05:16:19.924Z,22.20
2019-02-06T05:18:47.648Z,24.17
2019-02-06T05:21:34.484Z,22.50
2019-02-06T05:24:21.257Z,23.53
2019-02-06T05:26:48.615Z,22.37
2019-02-06T05:29:16.259Z,24.40
2019-02-06T05:31:43.527Z,18.53
2019-02-06T05:34:30.269Z,20.30
2019-02-06T05:36:58.013Z,20.30
2019-02-06T05:39:25.398Z,23.27
2019-02-06T05:41:53.004Z,26.40
2019-02-06T05:44:20.356Z,24.80
2019-02-06T05:46:47.985Z,29.03
2019-02-06T05:49:15.321Z,21.63
2019-02-06T05:54:41.298Z,18.53
2019-02-06T05:57:08.839Z,23.63
2019-02-06T05:59:36.191Z,22.23
2019-02-06T06:02:03.814Z,18.73
2019-02-06T06:04:50.747Z,18.77
2019-02-06T06:07:18.083Z,21.37
2019-02-06T06:09:46.201Z,17.13
2019-02-06T06:12:13.573Z,19.97
2019-02-06T06:14:41.180Z,21.70
2019-02-06T06:17:08.534Z,29.87
2019-02-06T06:19:55.296Z,20.20
2019-02-06T06:28:36.430Z,21.00
2019-02-06T06:31:03.959Z,21.17
2019-02-06T06:33:31.917Z,37.43
2019-02-06T06:35:59.195Z,24.47
2019-02-06T06:38:46.007Z,31.20
2019-02-06T06:41:32.865Z,17.17
2019-02-06T06:47:12.662Z,23.83
2019-02-06T06:49:40.375Z,27.47
2019-02-06T06:52:07.617Z,19.80
2019-02-06T06:54:35.416Z,26.03
2019-02-06T06:57:02.791Z,29.37
2019-02-06T06:59:30.132Z,24.30
2019-02-06T07:01:57.667Z,27.47
2019-02-06T07:04:25.299Z,28.10
2019-02-06T07:06:52.961Z,18.33
2019-02-06T07:09:20.306Z,23.23
2019-02-06T07:12:07.157Z,28.97
2019-02-06T07:14:34.749Z,26.07
2019-02-06T07:17:02.113Z,23.67
2019-02-06T07:19:29.780Z,29.63
2019-02-06T07:22:16.775Z,15.27
2019-02-06T07:25:03.604Z,22.83
2019-02-06T07:30:30.061Z,17.97
2019-02-06T07:32:57.410Z,18.53
2019-02-06T07:35:44.243Z,24.23
2019-02-06T07:38:23.277Z,29.30
2019-02-06T07:40:41.617Z,23.10
2019-02-06T07:43:09.002Z,28.73
2019-02-06T07:45:36.338Z,25.87
2019-02-06T07:48:03.947Z,17.33
2019-02-06T07:50:31.738Z,19.27
2019-02-06T07:52:59.234Z,22.47
2019-02-06T07:55:46.028Z,14.10
2019-02-06T07:58:13.430Z,22.60
2019-02-06T08:01:00.157Z,13.43
2019-02-06T08:09:28.029Z,22.50
2019-02-06T08:11:55.424Z,17.90
2019-02-06T08:14:23.055Z,21.03
2019-02-06T08:17:09.803Z,15.70
2019-02-06T08:25:33.790Z,21.03
2019-02-06T08:28:01.162Z,23.37
2019-02-06T08:30:29.736Z,21.20
2019-02-06T08:32:57.223Z,16.17
2019-02-06T08:35:44.064Z,22.00
2019-02-06T08:38:11.332Z,22.57
2019-02-06T08:40:38.694Z,25.50
2019-02-06T08:43:06.067Z,24.93
2019-02-06T08:45:53.182Z,19.00
2019-02-06T08:48:20.538Z,18.63
2019-02-06T08:50:48.170Z,17.93
2019-02-06T08:53:35.013Z,24.10
2019-02-06T08:56:22.105Z,26.40
2019-02-06T08:58:49.519Z,19.10
2019-02-06T09:01:36.356Z,25.57
2019-02-06T09:04:03.728Z,28.20
2019-02-06T09:06:31.355Z,20.47
2019-02-06T09:09:00.114Z,24.10
2019-02-06T09:11:27.838Z,20.13
2019-02-06T09:13:55.445Z,14.77
2019-02-06T09:16:22.910Z,15.30
2019-02-06T09:18:50.309Z,24.50
2019-02-06T09:21:17.601Z,17.70
2019-02-06T09:23:44.945Z,21.70
2019-02-06T09:26:34.032Z,25.20
2019-02-06T09:29:01.317Z,23.10
2019-02-06T09:31:28.667Z,15.70
2019-02-06T09:33:56.027Z,18.07
2019-02-06T09:36:23.293Z,22.40
2019-02-06T09:38:51.017Z,13.40
2019-02-06T09:41:18.292Z,17.90
2019-02-06T09:44:05.021Z,18.73
2019-02-06T09:46:32.405Z,17.97
2019-02-06T09:48:59.942Z,18.00
2019-02-06T09:51:27.377Z,15.93
2019-02-06T09:53:55.001Z,16.80
2019-02-06T09:56:22.357Z,17.87
2019-02-06T09:58:49.723Z,19.50
2019-02-06T10:01:17.109Z,21.10
2019-02-06T10:03:46.876Z,18.90
2019-02-06T10:06:13.647Z,19.93
2019-02-06T10:08:40.951Z,15.53
2019-02-06T10:11:11.645Z,20.87
2019-02-06T10:13:39.276Z,19.87
2019-02-06T10:16:06.622Z,15.33
2019-02-06T10:18:34.251Z,15.27
2019-02-06T10:21:01.533Z,16.07
2019-02-06T10:23:28.962Z,17.80
2019-02-06T10:25:56.622Z,22.23
2019-02-06T10:28:24.522Z,23.40
2019-02-06T10:30:52.121Z,15.77
2019-02-06T10:33:19.561Z,24.13
2019-02-06T10:36:06.398Z,23.70
2019-02-06T10:38:53.238Z,20.07
2019-02-06T10:41:20.746Z,28.80
2019-02-06T10:43:48.047Z,20.50
2019-02-06T10:46:18.210Z,19.67
2019-02-06T10:48:45.101Z,23.27
2019-02-06T10:51:12.762Z,25.97
2019-02-06T10:53:59.874Z,25.43
2019-02-06T10:56:27.532Z,29.30
2019-02-06T10:59:14.280Z,21.33
2019-02-06T11:05:05.310Z,27.00
2019-02-06T11:07:32.993Z,18.70
2019-02-06T11:10:00.637Z,21.57
2019-02-06T11:12:47.955Z,23.97
2019-02-06T11:15:15.303Z,24.97
2019-02-06T11:17:42.657Z,15.30
2019-02-06T11:20:11.807Z,28.13
2019-02-06T11:22:39.195Z,27.53
2019-02-06T11:25:06.924Z,28.57
2019-02-06T11:27:34.174Z,30.13
2019-02-06T11:30:01.526Z,35.73
2019-02-06T11:32:28.874Z,23.17
2019-02-06T11:35:15.721Z,27.20
2019-02-06T11:43:40.841Z,25.67
2019-02-06T11:46:27.682Z,22.53
2019-02-06T11:48:57.154Z,31.17
2019-02-06T11:51:43.947Z,35.63
2019-02-06T11:54:11.223Z,21.80
2019-02-06T11:56:38.598Z,28.17
2019-02-06T11:59:06.145Z,27.43
2019-02-06T12:01:47.305Z,19.53
2019-02-06T12:04:14.663Z,20.40
2019-02-06T12:06:41.980Z,26.13
2019-02-06T12:09:10.382Z,22.47
2019-02-06T12:11:38.005Z,26.40
2019-02-06T12:14:05.422Z,23.93
2019-02-06T12:16:52.553Z,21.23
2019-02-06T12:22:18.004Z,18.93
2019-02-06T12:24:45.387Z,19.27
2019-02-06T12:27:32.485Z,16.73
2019-02-06T12:30:19.329Z,19.57
2019-02-06T12:38:53.523Z,18.47
2019-02-06T12:41:15.830Z,23.23
2019-02-06T12:43:43.181Z,22.47
2019-02-06T12:46:10.539Z,19.17
2019-02-06T12:48:37.901Z,20.10
2019-02-06T12:51:05.161Z,15.63
2019-02-06T12:53:32.533Z,20.40
2019-02-06T12:55:59.904Z,20.10
2019-02-06T12:58:27.264Z,17.70
2019-02-06T13:00:54.923Z,19.30
2019-02-06T13:03:22.286Z,19.03
2019-02-06T13:05:49.665Z,19.00
2019-02-06T13:08:17.538Z,18.20
2019-02-06T13:11:04.332Z,20.73
2019-02-06T13:22:26.248Z,20.53
2019-02-06T13:25:13.098Z,17.20
2019-02-06T13:33:36.768Z,23.43
2019-02-06T13:36:07.897Z,20.50
2019-02-06T13:38:35.782Z,20.83
2019-02-06T13:41:03.237Z,22.90
2019-02-06T13:43:30.510Z,20.00
2019-02-06T13:46:20.110Z,20.93
2019-02-06T13:48:50.835Z,18.37
2019-02-06T13:51:19.700Z,15.03
2019-02-06T13:54:06.575Z,15.60
2019-02-06T13:56:33.743Z,17.67
2019-02-06T13:59:01.620Z,11.70
2019-02-06T14:01:29.251Z,17.23
2019-02-06T14:03:56.776Z,18.73
2019-02-06T14:06:43.645Z,16.17
2019-02-06T14:09:22.604Z,15.50
2019-02-06T14:12:03.836Z,21.87
2019-02-06T14:14:31.179Z,17.10
2019-02-06T14:17:18.508Z,17.90
2019-02-06T14:20:01.180Z,17.03
2019-02-06T14:22:39.506Z,16.03
2019-02-06T14:25:19.070Z,18.50
2019-02-06T14:28:07.181Z,21.67
2019-02-06T14:30:54.636Z,16.77
2019-02-06T14:33:41.373Z,20.50
2019-02-06T14:36:28.243Z,18.27
2019-02-06T14:39:19.995Z,20.70
2019-02-06T14:48:18.071Z,19.43
2019-02-06T14:51:11.010Z,23.27
2019-02-06T14:53:57.747Z,18.40
2019-02-06T14:56:44.600Z,21.60
2019-02-06T14:59:26.430Z,21.60
2019-02-06T15:02:11.824Z,17.63
2019-02-06T15:04:58.780Z,21.50
2019-02-06T15:07:34.695Z,19.27
2019-02-06T15:10:27.723Z,25.10
2019-02-06T15:13:14.512Z,20.13
2019-02-06T15:16:02.012Z,22.67
2019-02-06T15:18:48.956Z,22.30
2019-02-06T15:21:34.316Z,12.23
2019-02-06T15:24:30.300Z,25.83
2019-02-06T15:27:20.025Z,24.27
2019-02-06T15:30:13.318Z,24.40
2019-02-06T15:33:00.172Z,22.63
2019-02-06T15:35:47.007Z,29.27
2019-02-06T15:38:21.834Z,19.60
2019-02-06T15:41:09.658Z,26.97
2019-02-06T15:43:47.812Z,22.83
2019-02-06T15:46:26.833Z,25.90
2019-02-06T15:49:16.272Z,25.63
2019-02-06T15:52:18.368Z,22.27
2019-02-06T15:55:17.298Z,20.37
2019-02-06T15:58:04.380Z,17.17
2019-02-06T16:00:39.316Z,25.73
2019-02-06T16:06:42.474Z,26.50
2019-02-06T16:12:43.166Z,20.23
2019-02-06T16:15:30.046Z,20.87
2019-02-06T16:18:04.507Z,23.63
2019-02-06T16:20:51.280Z,20.90
2019-02-06T16:23:24.985Z,25.03
2019-02-06T16:26:05.887Z,24.33
2019-02-06T16:28:52.764Z,21.40
2019-02-06T16:31:30.750Z,15.80
2019-02-06T16:34:17.324Z,21.23
2019-02-06T16:37:04.186Z,21.70
2019-02-06T16:42:57.662Z,23.87
2019-02-06T16:48:39.897Z,25.43
2019-02-06T16:51:12.389Z,23.77
2019-02-06T16:53:59.179Z,21.30
2019-02-06T16:56:46.009Z,26.03
2019-02-06T16:59:32.888Z,25.90
2019-02-06T17:02:38.044Z,22.83
2019-02-06T17:05:11.804Z,21.20
2019-02-06T17:07:58.560Z,23.47
2019-02-06T17:10:38.434Z,21.37
2019-02-06T17:13:19.599Z,23.83
2019-02-06T17:16:06.421Z,28.50
2019-02-06T17:18:49.201Z,28.23
2019-02-06T17:21:36.015Z,20.00
2019-02-06T17:30:17.871Z,29.83
2019-02-06T17:35:50.398Z,33.13
2019-02-06T17:41:56.430Z,29.00
2019-02-06T17:44:43.305Z,27.07
2019-02-06T17:47:30.134Z,32.10
2019-02-06T17:50:06.201Z,29.73
2019-02-06T17:52:51.608Z,26.20
2019-02-06T17:55:38.476Z,30.07
2019-02-06T17:58:06.972Z,28.27
2019-02-06T18:00:53.747Z,27.07
2019-02-06T18:09:32.606Z,29.57
2019-02-06T18:12:00.059Z,25.83
2019-02-06T18:14:27.703Z,26.67
2019-02-06T18:16:55.091Z,34.20
2019-02-06T18:19:22.460Z,35.20
2019-02-06T18:22:09.756Z,35.83
2019-02-06T18:24:37.202Z,33.73
2019-02-06T18:27:24.041Z,37.57
2019-02-06T18:29:51.402Z,38.67
2019-02-06T18:32:19.022Z,37.10
2019-02-06T18:34:46.436Z,42.43
2019-02-06T18:37:13.801Z,23.60
2019-02-06T18:39:41.164Z,39.87
2019-02-06T18:42:08.826Z,40.43
2019-02-06T18:44:36.190Z,38.27
2019-02-06T18:47:23.017Z,35.40
2019-02-06T18:50:09.860Z,36.37
2019-02-06T18:55:35.635Z,40.20
2019-02-06T18:58:22.496Z,28.90
2019-02-06T19:00:49.888Z,39.20
2019-02-06T19:03:18.553Z,40.27
2019-02-06T19:05:45.900Z,37.10
2019-02-06T19:11:12.001Z,39.57
2019-02-06T19:13:39.405Z,37.83
2019-02-06T19:16:06.760Z,29.07
2019-02-06T19:18:34.142Z,36.20
2019-02-06T19:21:21.000Z,36.63
2019-02-06T19:23:48.654Z,40.17
2019-02-06T19:26:35.501Z,33.63
2019-02-06T19:32:01.379Z,41.20
2019-02-06T19:34:48.238Z,34.33
2019-02-06T19:43:27.126Z,41.17
2019-02-06T19:45:54.781Z,35.23
2019-02-06T19:48:41.685Z,36.67
2019-02-06T19:51:09.328Z,38.57
2019-02-06T19:53:56.174Z,34.07
2019-02-06T19:59:36.512Z,33.43
2019-02-06T20:02:04.167Z,39.73
2019-02-06T20:04:51.012Z,29.97
2019-02-06T20:07:40.021Z,33.13
2019-02-06T20:13:11.432Z,33.67
2019-02-06T20:15:35.406Z,33.63
2019-02-06T20:18:03.126Z,32.30
2019-02-06T20:20:30.903Z,32.87
2019-02-06T20:22:58.560Z,34.53
2019-02-06T20:25:25.909Z,30.37
2019-02-06T20:27:53.531Z,32.97
2019-02-06T20:30:40.388Z,33.23
2019-02-06T20:33:07.760Z,27.20
2019-02-06T20:35:35.439Z,20.53
2019-02-06T20:38:22.275Z,31.20
2019-02-06T20:40:49.652Z,27.13
2019-02-06T20:43:36.494Z,20.67
2019-02-06T20:46:05.676Z,25.73
2019-02-06T20:48:33.099Z,32.47
2019-02-06T20:51:00.581Z,28.73
2019-02-06T20:53:27.972Z,24.37
2019-02-06T20:55:55.640Z,35.30
2019-02-06T20:58:23.053Z,19.53
2019-02-06T21:00:50.408Z,28.07
2019-02-06T21:03:17.770Z,31.33
2019-02-06T21:05:45.312Z,20.33
2019-02-06T21:08:32.178Z,32.77
2019-02-06T21:10:59.516Z,22.30
2019-02-06T21:13:33.189Z,25.93
2019-02-06T21:15:56.349Z,19.20
2019-02-06T21:18:43.671Z,24.40
2019-02-06T21:21:11.587Z,26.80
2019-02-06T21:23:38.959Z,26.57
2019-02-06T21:26:06.307Z,26.30
2019-02-06T21:28:33.685Z,25.73
2019-02-06T21:31:01.441Z,24.17
2019-02-06T21:33:28.809Z,25.83
2019-02-06T21:36:15.632Z,26.67
2019-02-06T21:41:41.901Z,23.70
2019-02-06T21:44:09.264Z,24.57
2019-02-06T21:46:56.139Z,21.70
2019-02-06T21:49:35.843Z,15.80
2019-02-06T21:52:15.932Z,26.30
2019-02-06T21:54:53.849Z,29.27
2019-02-06T21:57:21.242Z,21.40
2019-02-06T21:59:48.828Z,29.87
2019-02-06T22:02:35.558Z,35.80
2019-02-06T22:05:03.437Z,9.07
2019-02-06T22:07:50.281Z,26.07
2019-02-06T22:10:17.673Z,28.47
2019-02-06T22:13:04.490Z,27.93
2019-02-06T22:15:32.149Z,23.00
2019-02-06T22:18:18.968Z,21.87
2019-02-06T22:20:46.329Z,27.87
2019-02-06T22:23:13.688Z,15.50
2019-02-06T22:25:41.072Z,24.97
2019-02-06T22:28:08.442Z,27.07
2019-02-06T22:33:34.178Z,19.77
2019-02-06T22:36:21.038Z,24.03
2019-02-06T22:38:50.212Z,12.03
2019-02-06T22:41:18.158Z,30.43
2019-02-06T22:44:06.863Z,31.23
2019-02-06T22:46:34.469Z,30.67
2019-02-06T22:49:04.886Z,26.03
2019-02-06T22:51:32.238Z,33.03
2019-02-06T22:54:19.116Z,23.20
2019-02-06T22:56:46.470Z,27.53
2019-02-06T22:59:33.312Z,25.10
2019-02-06T23:02:20.150Z,25.07
2019-02-06T23:04:47.517Z,26.50
2019-02-06T23:07:15.136Z,31.20
2019-02-06T23:09:42.476Z,25.80
2019-02-06T23:12:09.964Z,31.43
2019-02-06T23:14:37.355Z,35.27
2019-02-06T23:17:05.030Z,32.70
2019-02-06T23:19:32.404Z,25.33
2019-02-06T23:22:19.596Z,36.20
2019-02-06T23:24:47.095Z,33.03
2019-02-06T23:27:14.508Z,19.47
2019-02-06T23:30:01.574Z,24.77
2019-02-06T23:32:28.919Z,18.80
2019-02-06T23:34:56.178Z,29.77
2019-02-06T23:37:43.025Z,30.80
2019-02-06T23:40:10.671Z,18.27
2019-02-06T23:42:38.298Z,28.93
2019-02-06T23:45:05.861Z,21.27
2019-02-06T23:47:52.712Z,19.53
2019-02-06T23:50:20.060Z,26.40
2019-02-06T23:52:47.527Z,27.47
2019-02-06T23:55:34.305Z,14.53
